Time;durP1;ratioP1;P1;durP2;ratioP2;P2;SDS_P1;SDS_P2;PMS_P1;PMS_P2;Temp;Humidity;BMP_temperature;BMP_pressure;BME280_temperature;BME280_humidity;BME280_pressure;Samples;Min_cycle;Max_cycle;Signal;HPM_P1;HPM_P2
2021/09/04 00:00:26;;;;;;;5.40;1.37;;;12.30;99.90;;;;;;5055054;28;20178;-82
2021/09/04 00:02:52;;;;;;;7.80;1.13;;;12.20;99.90;;;;;;5054601;28;20533;-83
2021/09/04 00:05:17;;;;;;;5.43;1.47;;;12.20;99.90;;;;;;5054865;28;20212;-82
2021/09/04 00:07:43;;;;;;;6.87;1.10;;;12.10;99.90;;;;;;5054814;28;20180;-82
2021/09/04 00:10:09;;;;;;;8.40;2.10;;;12.10;99.90;;;;;;5054743;28;20198;-83
2021/09/04 00:12:35;;;;;;;5.83;1.17;;;12.10;99.90;;;;;;5054724;28;20229;-83
2021/09/04 00:15:03;;;;;;;6.63;2.03;;;12.00;99.90;;;;;;5054657;28;20996;-83
2021/09/04 00:17:29;;;;;;;5.70;1.30;;;12.00;99.90;;;;;;5054339;28;20474;-83
2021/09/04 00:19:54;;;;;;;4.17;1.27;;;12.00;99.90;;;;;;5054711;28;20505;-83
2021/09/04 00:22:20;;;;;;;6.67;2.07;;;11.90;99.90;;;;;;5054551;28;20176;-83
2021/09/04 00:24:46;;;;;;;5.07;1.20;;;11.90;99.90;;;;;;5054513;28;20173;-82
2021/09/04 00:27:11;;;;;;;6.33;1.70;;;11.80;99.90;;;;;;5054505;28;20700;-82
2021/09/04 00:29:37;;;;;;;5.53;1.90;;;12.00;99.90;;;;;;5054431;28;20176;-81
2021/09/04 00:32:03;;;;;;;3.00;1.23;;;11.80;99.90;;;;;;5054093;28;20206;-82
2021/09/04 00:34:29;;;;;;;4.10;0.80;;;11.80;99.90;;;;;;5054216;28;20703;-82
2021/09/04 00:36:55;;;;;;;11.30;1.93;;;11.80;99.90;;;;;;5054228;28;20561;-82
2021/09/04 00:39:20;;;;;;;6.37;1.10;;;11.80;99.90;;;;;;5054289;28;20197;-82
2021/09/04 00:41:46;;;;;;;5.60;1.90;;;11.70;99.90;;;;;;5054185;28;20188;-82
2021/09/04 00:44:17;;;;;;;6.87;1.60;;;11.70;99.90;;;;;;5054156;28;20711;-82
2021/09/04 00:46:43;;;;;;;3.80;1.17;;;11.60;99.90;;;;;;5053732;28;20782;-83
2021/09/04 00:49:09;;;;;;;3.60;0.87;;;11.60;99.90;;;;;;5054036;28;20426;-82
2021/09/04 00:51:34;;;;;;;5.50;1.23;;;11.50;99.90;;;;;;5053024;28;20425;-82
2021/09/04 00:54:00;;;;;;;4.90;1.40;;;11.50;99.90;;;;;;5053984;28;20171;-82
2021/09/04 00:56:26;;;;;;;5.57;1.03;;;11.40;99.90;;;;;;5053801;28;20241;-82
2021/09/04 00:58:52;;;;;;;5.47;0.90;;;11.40;99.90;;;;;;5052572;28;20897;-83
2021/09/04 01:01:17;;;;;;;2.90;1.07;;;11.30;99.90;;;;;;5053777;28;20183;-83
2021/09/04 01:03:43;;;;;;;5.73;2.53;;;11.30;99.90;;;;;;5053528;28;20197;-83
2021/09/04 01:06:13;;;;;;;3.00;1.20;;;11.30;99.90;;;;;;5053789;28;20274;-82
2021/09/04 01:08:40;;;;;;;5.50;1.07;;;11.30;99.90;;;;;;5053750;28;21048;-82
2021/09/04 01:11:16;;;;;;;7.10;1.30;;;11.20;99.90;;;;;;5110947;27;20573;-83
2021/09/04 01:13:43;;;;;;;4.97;1.20;;;11.20;99.90;;;;;;5110524;28;20414;-83
2021/09/04 01:16:08;;;;;;;6.43;1.20;;;11.20;99.90;;;;;;5110707;28;20415;-83
2021/09/04 01:18:34;;;;;;;4.60;1.60;;;11.20;99.90;;;;;;5110375;28;20765;-82
2021/09/04 01:21:02;;;;;;;4.83;2.20;;;11.10;99.90;;;;;;5110645;28;20225;-83
2021/09/04 01:23:28;;;;;;;4.00;1.00;;;11.10;99.90;;;;;;5110519;28;20405;-82
2021/09/04 01:25:56;;;;;;;6.17;1.70;;;11.00;99.90;;;;;;5110477;28;20414;-81
2021/09/04 01:28:22;;;;;;;5.33;1.63;;;11.00;99.90;;;;;;5110429;28;20164;-81
2021/09/04 01:30:49;;;;;;;8.20;1.33;;;11.00;99.90;;;;;;5110340;28;20501;-82
2021/09/04 01:33:15;;;;;;;8.93;1.73;;;11.00;99.90;;;;;;5108730;28;20779;-82
2021/09/04 01:35:41;;;;;;;5.47;2.07;;;11.10;99.90;;;;;;5110141;28;20441;-81
2021/09/04 01:38:07;;;;;;;4.13;0.90;;;11.20;99.90;;;;;;5110343;28;20406;-82
2021/09/04 01:40:33;;;;;;;4.47;0.90;;;11.10;99.90;;;;;;5110114;28;20169;-82
2021/09/04 01:42:58;;;;;;;4.97;0.93;;;11.20;99.90;;;;;;5110212;28;20654;-82
2021/09/04 01:45:24;;;;;;;3.20;1.57;;;11.30;99.90;;;;;;5110113;28;20303;-82
2021/09/04 01:47:50;;;;;;;3.97;1.30;;;11.30;99.90;;;;;;5108520;28;20186;-82
2021/09/04 01:50:16;;;;;;;4.77;1.40;;;11.30;99.90;;;;;;5110025;28;20215;-82
2021/09/04 01:52:44;;;;;;;6.00;1.10;;;11.30;99.90;;;;;;5110008;28;20173;-81
2021/09/04 01:55:12;;;;;;;5.20;0.87;;;11.20;99.90;;;;;;5110004;28;20463;-81
2021/09/04 01:57:38;;;;;;;6.70;1.50;;;11.10;99.90;;;;;;5109848;28;20509;-82
2021/09/04 02:00:09;;;;;;;3.57;0.90;;;11.10;99.90;;;;;;5108665;28;20964;-81
2021/09/04 02:02:35;;;;;;;4.13;1.60;;;11.00;99.90;;;;;;5108082;28;20264;-81
2021/09/04 02:05:01;;;;;;;6.93;1.63;;;11.00;99.90;;;;;;5109694;28;20459;-81
2021/09/04 02:07:28;;;;;;;4.70;1.43;;;10.90;99.90;;;;;;5109639;28;20499;-82
2021/09/04 02:09:54;;;;;;;2.50;1.30;;;10.90;99.90;;;;;;5109441;28;20470;-82
2021/09/04 02:12:19;;;;;;;5.70;1.27;;;11.00;99.90;;;;;;5109671;28;20470;-81
2021/09/04 02:14:45;;;;;;;3.70;1.27;;;11.00;99.90;;;;;;5109604;28;20181;-81
2021/09/04 02:17:11;;;;;;;3.77;0.93;;;11.00;99.90;;;;;;5109317;28;20174;-81
2021/09/04 02:19:36;;;;;;;4.90;1.57;;;11.10;99.90;;;;;;5109497;28;20173;-81
2021/09/04 02:22:03;;;;;;;5.97;2.20;;;11.10;99.90;;;;;;5098894;28;20172;-81
2021/09/04 02:24:29;;;;;;;4.97;2.10;;;11.20;99.90;;;;;;5095791;28;20178;-81
2021/09/04 02:26:55;;;;;;;4.13;0.90;;;11.30;99.90;;;;;;5095761;28;20799;-82
2021/09/04 02:29:21;;;;;;;4.10;2.30;;;11.30;99.90;;;;;;5091334;28;20817;-82
2021/09/04 02:31:47;;;;;;;4.50;1.80;;;11.30;99.90;;;;;;5090638;28;20430;-83
2021/09/04 02:34:13;;;;;;;4.63;1.37;;;11.60;99.90;;;;;;5094893;28;20192;-82
2021/09/04 02:36:41;;;;;;;4.27;1.50;;;11.60;99.90;;;;;;5095222;28;20169;-82
2021/09/04 02:39:07;;;;;;;5.17;1.80;;;11.60;99.90;;;;;;5088272;28;20443;-81
2021/09/04 02:41:33;;;;;;;10.30;2.20;;;11.60;99.90;;;;;;5081097;28;20446;-82
2021/09/04 02:43:59;;;;;;;4.40;1.43;;;11.80;99.90;;;;;;5075169;28;20201;-83
2021/09/04 02:46:25;;;;;;;3.27;1.23;;;11.80;99.90;;;;;;5085809;28;20406;-81
2021/09/04 02:48:50;;;;;;;9.03;2.17;;;11.80;99.90;;;;;;5095033;28;20582;-82
2021/09/04 02:51:16;;;;;;;4.60;1.43;;;11.80;99.90;;;;;;5095091;28;20176;-81
2021/09/04 02:53:42;;;;;;;5.37;1.57;;;11.90;99.90;;;;;;5093778;28;20174;-82
2021/09/04 02:56:07;;;;;;;6.30;1.43;;;11.90;99.90;;;;;;5095069;28;20672;-82
2021/09/04 02:58:33;;;;;;;3.40;1.70;;;11.90;99.90;;;;;;5094987;28;20193;-82
2021/09/04 03:00:59;;;;;;;8.90;2.43;;;12.00;99.90;;;;;;5093361;28;20181;-83
2021/09/04 03:03:25;;;;;;;5.20;2.10;;;12.10;99.90;;;;;;5094947;28;20511;-83
2021/09/04 03:05:51;;;;;;;3.03;1.07;;;12.20;99.90;;;;;;5094721;28;20423;-85
2021/09/04 03:08:17;;;;;;;3.30;1.77;;;12.20;99.90;;;;;;5094757;28;20468;-84
2021/09/04 03:10:43;;;;;;;3.90;2.40;;;12.20;99.90;;;;;;5094503;28;20225;-84
2021/09/04 03:13:08;;;;;;;6.00;2.23;;;12.40;99.90;;;;;;5094687;28;20801;-84
2021/09/04 03:15:34;;;;;;;3.40;2.20;;;12.40;99.90;;;;;;5094645;28;20658;-84
2021/09/04 03:17:59;;;;;;;6.90;1.63;;;12.40;99.90;;;;;;5094229;28;20169;-85
2021/09/04 03:20:25;;;;;;;5.23;1.80;;;12.40;99.90;;;;;;5094462;28;20181;-84
2021/09/04 03:22:51;;;;;;;5.60;1.57;;;12.40;99.90;;;;;;5094325;28;20166;-84
2021/09/04 03:25:16;;;;;;;3.80;1.60;;;12.50;99.90;;;;;;5094441;28;20174;-84
2021/09/04 03:27:42;;;;;;;14.40;2.63;;;12.50;99.90;;;;;;5094371;28;20636;-84
2021/09/04 03:30:09;;;;;;;4.80;1.47;;;12.40;99.90;;;;;;5094367;28;20292;-84
2021/09/04 03:32:35;;;;;;;4.40;1.90;;;12.40;99.90;;;;;;5091753;28;20416;-84
2021/09/04 03:35:00;;;;;;;4.10;1.80;;;12.50;99.90;;;;;;5094164;28;20422;-84
2021/09/04 03:37:26;;;;;;;2.70;1.07;;;12.50;99.90;;;;;;5092924;28;20904;-85
2021/09/04 03:39:52;;;;;;;4.20;1.70;;;12.60;99.90;;;;;;5094122;28;20175;-85
2021/09/04 03:42:17;;;;;;;3.37;2.27;;;12.60;99.90;;;;;;5094110;28;20259;-84
2021/09/04 03:44:43;;;;;;;7.17;2.13;;;12.60;99.90;;;;;;5094084;28;20180;-84
2021/09/04 03:47:09;;;;;;;5.40;1.90;;;12.60;99.90;;;;;;5093313;28;20179;-85
2021/09/04 03:49:34;;;;;;;5.10;1.53;;;12.60;99.90;;;;;;5093876;28;20200;-83
2021/09/04 03:52:00;;;;;;;7.70;1.90;;;12.60;99.90;;;;;;5093885;28;20420;-84
2021/09/04 03:54:26;;;;;;;5.77;3.00;;;12.60;99.90;;;;;;5092677;28;20265;-84
2021/09/04 03:56:53;;;;;;;7.80;2.20;;;12.70;99.90;;;;;;5093920;28;20628;-84
2021/09/04 03:59:21;;;;;;;4.03;1.83;;;12.70;99.90;;;;;;5093811;28;20526;-83
2021/09/04 04:01:50;;;;;;;9.67;2.60;;;12.70;99.90;;;;;;5092173;28;20466;-83
2021/09/04 04:04:16;;;;;;;6.33;1.97;;;12.70;99.90;;;;;;5093630;28;20415;-84
2021/09/04 04:06:42;;;;;;;5.97;2.20;;;12.70;99.90;;;;;;5093643;28;20417;-84
2021/09/04 04:09:07;;;;;;;4.67;1.87;;;12.70;99.90;;;;;;5093374;28;20187;-84
2021/09/04 04:11:33;;;;;;;5.17;1.87;;;12.80;99.90;;;;;;5093971;28;20264;-83
2021/09/04 04:13:59;;;;;;;5.73;1.20;;;12.90;99.90;;;;;;5093704;28;20203;-83
2021/09/04 04:16:24;;;;;;;5.93;2.60;;;12.80;99.90;;;;;;5103595;28;20189;-83
2021/09/04 04:18:50;;;;;;;9.50;2.40;;;12.80;99.90;;;;;;5093820;28;20183;-84
2021/09/04 04:21:16;;;;;;;7.47;2.50;;;12.80;99.90;;;;;;5093820;28;20611;-85
2021/09/04 04:23:41;;;;;;;5.63;2.10;;;12.70;99.90;;;;;;5093862;28;20255;-83
2021/09/04 04:26:07;;;;;;;3.63;2.10;;;12.80;99.90;;;;;;5093606;28;20668;-84
2021/09/04 04:28:33;;;;;;;3.50;2.47;;;12.80;99.90;;;;;;5093379;28;20398;-84
2021/09/04 04:31:01;;;;;;;6.60;2.13;;;12.80;99.90;;;;;;5092947;28;20259;-87
2021/09/04 04:33:27;;;;;;;3.20;1.97;;;12.90;99.90;;;;;;5093263;28;20416;-84
2021/09/04 04:35:52;;;;;;;6.20;1.97;;;12.90;99.90;;;;;;5091902;28;20431;-83
2021/09/04 04:38:18;;;;;;;5.40;1.70;;;12.80;99.90;;;;;;5093109;28;20234;-85
2021/09/04 04:40:43;;;;;;;6.13;2.20;;;12.80;99.90;;;;;;5093184;28;20178;-83
2021/09/04 04:43:09;;;;;;;4.60;2.33;;;12.80;99.90;;;;;;5093033;28;20681;-87
2021/09/04 04:45:34;;;;;;;4.57;2.30;;;12.80;99.90;;;;;;5092701;28;20174;-85
2021/09/04 04:48:00;;;;;;;5.43;1.93;;;12.80;99.90;;;;;;5092523;28;20169;-84
2021/09/04 04:50:26;;;;;;;8.43;3.10;;;12.90;99.90;;;;;;5092826;28;20294;-84
2021/09/04 04:52:51;;;;;;;4.90;2.30;;;12.90;99.90;;;;;;5092921;28;20171;-84
2021/09/04 04:55:17;;;;;;;5.40;1.83;;;12.80;99.90;;;;;;5092928;28;20470;-84
2021/09/04 04:57:43;;;;;;;5.33;2.17;;;13.00;99.90;;;;;;5108536;28;20185;-86
2021/09/04 05:00:09;;;;;;;5.83;2.97;;;12.90;99.90;;;;;;5092720;28;20215;-85
2021/09/04 05:02:35;;;;;;;3.50;2.20;;;12.90;99.90;;;;;;5092289;28;20164;-84
2021/09/04 05:05:01;;;;;;;3.97;2.23;;;12.90;99.90;;;;;;5092473;28;20512;-85
2021/09/04 05:07:26;;;;;;;2.87;1.97;;;12.90;99.90;;;;;;5091433;28;20170;-84
2021/09/04 05:09:52;;;;;;;5.57;2.70;;;13.00;99.90;;;;;;5092439;28;20253;-85
2021/09/04 05:12:17;;;;;;;5.80;3.57;;;13.10;99.90;;;;;;5091409;28;20178;-84
2021/09/04 05:14:43;;;;;;;5.50;2.87;;;13.10;99.90;;;;;;5092670;28;20262;-84
2021/09/04 05:17:09;;;;;;;6.43;2.57;;;13.20;99.90;;;;;;5092496;28;20163;-85
2021/09/04 05:19:34;;;;;;;7.77;3.50;;;13.20;99.90;;;;;;5092551;28;20621;-85
2021/09/04 05:22:00;;;;;;;6.07;3.40;;;13.30;99.90;;;;;;5092555;28;20168;-84
2021/09/04 05:24:26;;;;;;;7.40;3.53;;;13.30;99.90;;;;;;5092454;28;20241;-84
2021/09/04 05:26:51;;;;;;;6.47;3.17;;;13.30;99.90;;;;;;5092655;28;20168;-84
2021/09/04 05:29:17;;;;;;;4.63;3.13;;;13.40;99.90;;;;;;5092356;28;20456;-84
2021/09/04 05:31:43;;;;;;;5.33;3.27;;;13.40;99.90;;;;;;5092174;28;20517;-84
2021/09/04 05:34:08;;;;;;;9.33;4.40;;;13.50;99.90;;;;;;5092376;28;20182;-86
2021/09/04 05:36:34;;;;;;;9.50;4.20;;;13.60;99.90;;;;;;5092486;28;20177;-84
2021/09/04 05:38:59;;;;;;;7.83;4.40;;;13.60;99.90;;;;;;5092446;28;20558;-84
2021/09/04 05:41:25;;;;;;;10.67;5.07;;;13.60;99.90;;;;;;5092412;28;20186;-84
2021/09/04 05:43:51;;;;;;;8.87;5.23;;;13.60;99.90;;;;;;5092462;28;20164;-83
2021/09/04 05:46:17;;;;;;;7.33;4.73;;;13.70;99.90;;;;;;5092104;28;20180;-83
2021/09/04 05:48:43;;;;;;;6.10;4.60;;;13.90;99.90;;;;;;5092245;28;20491;-82
2021/09/04 05:51:08;;;;;;;8.80;5.07;;;13.90;99.90;;;;;;5092235;28;20253;-83
2021/09/04 05:53:34;;;;;;;7.90;5.30;;;13.90;99.90;;;;;;5092348;28;20209;-82
2021/09/04 05:55:59;;;;;;;14.87;6.53;;;14.00;99.90;;;;;;5092830;28;20698;-82
2021/09/04 05:58:25;;;;;;;10.30;5.37;;;14.10;99.90;;;;;;5096143;28;20180;-82
2021/09/04 06:00:54;;;;;;;9.00;5.00;;;14.10;99.90;;;;;;5095692;28;20207;-82
2021/09/04 06:03:20;;;;;;;11.73;6.73;;;14.20;99.90;;;;;;5096003;28;20402;-83
2021/09/04 06:05:45;;;;;;;12.30;6.23;;;14.20;99.90;;;;;;5095727;28;20414;-83
2021/09/04 06:08:11;;;;;;;14.47;9.00;;;14.20;99.90;;;;;;5095928;28;20298;-82
2021/09/04 06:10:36;;;;;;;11.77;5.80;;;14.30;99.90;;;;;;5095722;28;20228;-82
2021/09/04 06:13:02;;;;;;;11.53;5.83;;;14.40;99.90;;;;;;5111557;28;20222;-82
2021/09/04 06:15:28;;;;;;;12.57;6.30;;;14.40;99.90;;;;;;5095408;28;20169;-82
2021/09/04 06:17:54;;;;;;;9.83;5.73;;;14.40;99.90;;;;;;5095746;28;20417;-82
2021/09/04 06:20:19;;;;;;;9.90;6.00;;;14.40;99.90;;;;;;5095588;28;20173;-81
2021/09/04 06:22:45;;;;;;;11.00;6.63;;;14.50;99.90;;;;;;5095540;28;20542;-82
2021/09/04 06:25:11;;;;;;;12.37;5.93;;;14.60;99.90;;;;;;5095582;28;20152;-82
2021/09/04 06:27:38;;;;;;;8.90;6.63;;;14.60;99.90;;;;;;5095535;28;20666;-82
2021/09/04 06:30:05;;;;;;;10.30;5.80;;;14.70;99.90;;;;;;5095295;28;20470;-82
2021/09/04 06:32:30;;;;;;;9.97;6.30;;;14.70;99.90;;;;;;5094936;28;20476;-81
2021/09/04 06:34:56;;;;;;;10.93;7.00;;;14.90;99.90;;;;;;5095210;28;20419;-82
2021/09/04 06:37:25;;;;;;;14.07;7.87;;;15.00;99.90;;;;;;5095404;28;20177;-81
2021/09/04 06:39:50;;;;;;;14.00;7.77;;;15.00;99.90;;;;;;5094020;28;20174;-80
2021/09/04 06:42:17;;;;;;;12.20;7.10;;;15.00;99.90;;;;;;5095157;28;20463;-82
2021/09/04 06:44:43;;;;;;;9.70;5.87;;;15.00;99.90;;;;;;5095290;28;20172;-82
2021/09/04 06:47:09;;;;;;;12.53;6.27;;;15.00;99.90;;;;;;5094782;28;20490;-83
2021/09/04 06:49:34;;;;;;;12.83;6.60;;;15.10;99.90;;;;;;5094944;28;20450;-82
2021/09/04 06:52:00;;;;;;;12.70;6.43;;;15.10;99.90;;;;;;5093663;28;20427;-82
2021/09/04 06:54:25;;;;;;;11.67;5.67;;;15.20;99.90;;;;;;5094933;28;20179;-82
2021/09/04 06:56:51;;;;;;;12.37;7.13;;;15.30;99.90;;;;;;5094980;28;20239;-83
2021/09/04 06:59:17;;;;;;;11.87;7.00;;;15.30;99.90;;;;;;5094797;28;20572;-83
2021/09/04 07:01:43;;;;;;;10.93;6.20;;;15.30;99.90;;;;;;5094397;28;20204;-82
2021/09/04 07:04:09;;;;;;;14.67;6.70;;;15.30;99.90;;;;;;5094874;28;20424;-82
2021/09/04 07:06:35;;;;;;;10.27;6.10;;;15.30;99.90;;;;;;5093366;28;20165;-82
2021/09/04 07:09:00;;;;;;;13.97;6.70;;;15.40;99.90;;;;;;5094243;28;20515;-82
2021/09/04 07:11:26;;;;;;;13.47;7.07;;;15.40;99.90;;;;;;5094576;28;20182;-82
2021/09/04 07:13:51;;;;;;;11.47;6.53;;;15.50;99.90;;;;;;5094580;28;20663;-81
2021/09/04 07:16:17;;;;;;;9.87;6.03;;;15.50;99.90;;;;;;5094171;28;20192;-84
2021/09/04 07:18:43;;;;;;;13.73;6.67;;;15.60;99.90;;;;;;5094358;28;20170;-82
2021/09/04 07:21:08;;;;;;;12.53;6.53;;;15.60;99.90;;;;;;5094432;28;20170;-82
2021/09/04 07:23:35;;;;;;;15.80;7.30;;;15.70;99.90;;;;;;5094281;28;20174;-82
2021/09/04 07:26:01;;;;;;;12.00;6.63;;;15.70;99.90;;;;;;5094325;28;20171;-82
2021/09/04 07:28:26;;;;;;;11.33;6.10;;;15.80;99.90;;;;;;5094276;28;20417;-82
2021/09/04 07:30:55;;;;;;;12.87;6.93;;;15.80;99.90;;;;;;5093810;28;20210;-82
2021/09/04 07:33:21;;;;;;;14.73;7.17;;;15.90;99.90;;;;;;5094108;28;20184;-82
2021/09/04 07:35:46;;;;;;;12.43;6.30;;;15.90;99.90;;;;;;5113148;28;20415;-82
2021/09/04 07:38:15;;;;;;;10.67;5.60;;;15.80;99.90;;;;;;5114502;28;20541;-82
2021/09/04 07:40:40;;;;;;;11.27;6.10;;;15.90;99.90;;;;;;5114412;28;20201;-82
2021/09/04 07:43:08;;;;;;;11.17;7.17;;;16.00;99.90;;;;;;5114526;28;20478;-82
2021/09/04 07:45:35;;;;;;;8.30;5.40;;;16.30;99.90;;;;;;5113532;28;20624;-83
2021/09/04 07:48:14;;;;;;;14.67;6.87;;;16.30;99.90;;;;;;5114365;28;20464;-82
2021/09/04 07:50:39;;;;;;;8.37;5.73;;;16.40;99.90;;;;;;5113271;28;21025;-88
2021/09/04 07:53:05;;;;;;;8.60;5.43;;;16.80;99.90;;;;;;5113237;28;20499;-85
2021/09/04 07:55:30;;;;;;;9.53;5.13;;;17.00;99.90;;;;;;5114387;28;20171;-83
2021/09/04 07:57:56;;;;;;;11.10;5.67;;;17.10;99.90;;;;;;5112979;28;20220;-84
2021/09/04 08:00:26;;;;;;;8.67;4.20;;;17.20;99.90;;;;;;5112362;28;20180;-83
2021/09/04 08:02:52;;;;;;;11.37;5.23;;;17.10;99.90;;;;;;5114111;28;20167;-83
2021/09/04 08:05:24;;;;;;;13.33;4.47;;;17.10;99.90;;;;;;5114331;28;20461;-83
2021/09/04 08:07:49;;;;;;;8.40;4.90;;;17.10;99.90;;;;;;5113855;28;20409;-85
2021/09/04 08:10:15;;;;;;;8.77;5.47;;;17.00;99.90;;;;;;5113734;28;20524;-88
2021/09/04 08:12:41;;;;;;;6.30;4.57;;;16.90;99.90;;;;;;5113968;28;20246;-86
2021/09/04 08:15:07;;;;;;;7.60;3.90;;;16.90;99.90;;;;;;5113364;28;20178;-82
2021/09/04 08:17:33;;;;;;;6.90;3.90;;;17.10;99.90;;;;;;5114006;28;20565;-84
2021/09/04 08:20:01;;;;;;;5.70;3.37;;;17.90;99.90;;;;;;5111859;28;20437;-86
2021/09/04 08:22:30;;;;;;;9.20;5.13;;;18.50;99.90;;;;;;5112628;28;20177;-83
2021/09/04 08:24:56;;;;;;;6.33;4.20;;;18.30;99.90;;;;;;5112308;28;20499;-85
2021/09/04 08:27:22;;;;;;;6.67;3.47;;;18.20;99.90;;;;;;5113952;28;20766;-88
2021/09/04 08:29:47;;;;;;;4.53;3.00;;;18.20;99.90;;;;;;5113556;28;20556;-85
2021/09/04 08:32:13;;;;;;;4.10;2.87;;;20.70;99.90;;;;;;5112793;28;20175;-84
2021/09/04 08:34:42;;;;;;;5.67;2.60;;;19.70;99.90;;;;;;5113908;28;20214;-83
2021/09/04 08:37:08;;;;;;;5.37;2.77;;;20.50;99.90;;;;;;5113810;28;20520;-82
2021/09/04 08:39:33;;;;;;;6.77;3.90;;;23.20;96.00;;;;;;5113951;28;20873;-86
2021/09/04 08:41:59;;;;;;;6.17;3.40;;;23.60;91.10;;;;;;5113631;28;20176;-85
2021/09/04 08:44:26;;;;;;;5.77;3.37;;;22.70;96.70;;;;;;5113707;28;20317;-88
2021/09/04 08:46:51;;;;;;;7.87;3.50;;;23.90;91.70;;;;;;5112106;28;20186;-85
2021/09/04 08:49:18;;;;;;;4.20;2.70;;;25.50;87.10;;;;;;5113581;28;21086;-84
2021/09/04 08:51:44;;;;;;;6.77;3.70;;;26.20;82.00;;;;;;5113687;28;20262;-89
2021/09/04 08:54:10;;;;;;;4.60;3.30;;;25.50;76.30;;;;;;5112006;28;20801;-84
2021/09/04 08:56:36;;;;;;;5.40;3.47;;;24.60;81.30;;;;;;5098074;28;20417;-84
2021/09/04 08:59:02;;;;;;;4.33;2.50;;;22.40;91.90;;;;;;5092912;28;20421;-87
2021/09/04 09:01:29;;;;;;;5.13;3.13;;;21.90;96.30;;;;;;5093044;28;20176;-83
2021/09/04 09:04:03;;;;;;;6.20;3.30;;;21.00;99.90;;;;;;5091910;28;20426;-88
2021/09/04 09:06:32;;;;;;;5.57;2.90;;;21.00;99.90;;;;;;5093322;28;20434;-90
2021/09/04 09:08:58;;;;;;;7.27;3.90;;;20.90;99.90;;;;;;5093035;28;20403;-86
2021/09/04 09:11:24;;;;;;;4.23;3.27;;;20.30;99.90;;;;;;5093282;28;20957;-84
2021/09/04 09:13:53;;;;;;;9.77;4.00;;;20.10;99.90;;;;;;5093168;28;20441;-85
2021/09/04 09:16:21;;;;;;;5.20;3.03;;;19.90;99.90;;;;;;5092676;28;20497;-86
2021/09/04 09:19:02;;;;;;;7.23;3.93;;;20.10;99.90;;;;;;5093055;28;20509;-87
2021/09/04 09:21:31;;;;;;;7.90;3.67;;;20.60;99.90;;;;;;5093023;28;20986;-85
2021/09/04 09:24:20;;;;;;;4.27;3.40;;;21.30;99.90;;;;;;5092511;28;20485;-87
2021/09/04 09:26:53;;;;;;;4.73;3.13;;;20.50;99.90;;;;;;5092978;28;20951;-89
2021/09/04 09:29:20;;;;;;;5.93;3.90;;;19.50;99.90;;;;;;5091912;28;20925;-86
2021/09/04 09:31:45;;;;;;;5.87;4.33;;;19.00;99.90;;;;;;5093528;28;20424;-89
2021/09/04 09:34:12;;;;;;;5.30;3.60;;;18.90;99.90;;;;;;5097047;28;20415;-88
2021/09/04 09:36:49;;;;;;;4.70;3.27;;;18.80;99.90;;;;;;5097043;28;20192;-86
2021/09/04 09:39:15;;;;;;;5.43;3.50;;;18.60;99.90;;;;;;5097121;28;20417;-88
2021/09/04 09:41:51;;;;;;;6.20;4.33;;;18.70;99.90;;;;;;5096797;28;20760;-87
2021/09/04 09:44:21;;;;;;;5.80;4.33;;;18.80;99.90;;;;;;5093737;28;20418;-85
2021/09/04 09:46:53;;;;;;;5.47;4.13;;;18.70;99.90;;;;;;5092908;28;20423;-83
2021/09/04 09:49:28;;;;;;;5.40;3.77;;;18.80;99.90;;;;;;5094538;28;20423;-85
2021/09/04 09:51:59;;;;;;;5.30;3.70;;;18.70;99.90;;;;;;5092257;28;20459;-89
2021/09/04 09:54:27;;;;;;;7.17;3.43;;;18.50;99.90;;;;;;5094930;28;20411;-87
2021/09/04 09:56:55;;;;;;;7.03;4.13;;;18.60;99.90;;;;;;5096600;28;20407;-84
2021/09/04 09:59:23;;;;;;;7.43;3.70;;;18.80;99.90;;;;;;5097086;28;20769;-88
2021/09/04 10:01:49;;;;;;;7.77;4.50;;;19.00;99.90;;;;;;5096594;28;20409;-89
2021/09/04 10:04:16;;;;;;;5.60;3.03;;;18.70;99.90;;;;;;5095799;28;20460;-89
2021/09/04 10:06:43;;;;;;;6.23;2.80;;;18.50;99.90;;;;;;5096779;28;20440;-88
2021/09/04 10:09:09;;;;;;;6.00;4.30;;;18.40;99.90;;;;;;5095389;28;20818;-87
2021/09/04 10:11:38;;;;;;;7.67;3.70;;;18.30;99.90;;;;;;5096633;28;20413;-88
2021/09/04 10:14:04;;;;;;;9.20;4.70;;;18.20;99.90;;;;;;5096753;28;20169;-86
2021/09/04 10:16:30;;;;;;;7.43;4.57;;;18.20;99.90;;;;;;5096315;28;20425;-86
2021/09/04 10:18:56;;;;;;;6.30;3.40;;;18.20;99.90;;;;;;5097402;28;20522;-89
2021/09/04 10:21:26;;;;;;;8.00;4.47;;;18.10;99.90;;;;;;5097011;28;20513;-89
2021/09/04 10:23:53;;;;;;;8.70;3.47;;;18.20;99.90;;;;;;5096626;28;20427;-90
2021/09/04 10:26:31;;;;;;;7.33;3.87;;;18.40;99.90;;;;;;5096831;28;20417;-83
2021/09/04 10:29:18;;;;;;;7.50;3.53;;;18.70;99.90;;;;;;5096302;28;20405;-90
2021/09/04 10:31:56;;;;;;;10.10;4.20;;;18.80;99.90;;;;;;5096187;28;20950;-87
2021/09/04 10:34:45;;;;;;;7.30;3.90;;;19.00;99.90;;;;;;5096413;28;20914;-89
2021/09/04 10:37:13;;;;;;;9.90;4.13;;;19.00;99.90;;;;;;5096052;28;20493;-87
2021/09/04 10:39:51;;;;;;;6.23;4.10;;;19.20;99.90;;;;;;5095879;28;20439;-86
2021/09/04 10:42:22;;;;;;;7.30;4.33;;;19.70;99.90;;;;;;5095263;28;20407;-87
2021/09/04 10:44:51;;;;;;;6.07;3.93;;;20.50;99.90;;;;;;5095132;28;20408;-86
2021/09/04 10:47:17;;;;;;;7.60;3.67;;;22.30;99.90;;;;;;5094274;28;20410;-90
2021/09/04 10:49:46;;;;;;;5.80;4.10;;;21.70;99.90;;;;;;5094202;28;20991;-86
2021/09/04 10:52:12;;;;;;;6.67;3.73;;;20.50;99.90;;;;;;5095483;28;20417;-89
2021/09/04 10:54:53;;;;;;;5.07;3.97;;;19.80;99.90;;;;;;5095804;28;20809;-89
2021/09/04 10:57:19;;;;;;;7.70;4.03;;;19.40;99.90;;;;;;5095402;28;20410;-90
2021/09/04 11:00:07;;;;;;;6.67;3.80;;;19.00;99.90;;;;;;5095137;28;20401;-89
2021/09/04 11:02:58;;;;;;;9.63;4.40;;;18.90;99.90;;;;;;5095579;28;20172;-87
2021/09/04 11:05:23;;;;;;;5.10;4.30;;;18.70;99.90;;;;;;5095271;28;20491;-87
2021/09/04 11:08:01;;;;;;;6.60;4.67;;;18.30;99.90;;;;;;5095004;28;20890;-89
2021/09/04 11:10:28;;;;;;;9.47;4.57;;;18.50;99.90;;;;;;5094725;28;20223;-86
2021/09/04 11:13:13;;;;;;;9.00;4.20;;;18.50;99.90;;;;;;5095055;28;20424;-88
2021/09/04 11:15:46;;;;;;;5.00;3.83;;;18.40;99.90;;;;;;5094925;28;20407;-88
2021/09/04 11:18:14;;;;;;;9.47;3.70;;;18.30;99.90;;;;;;5095050;28;20414;-87
2021/09/04 11:20:48;;;;;;;9.17;4.43;;;18.40;99.90;;;;;;5094946;28;20418;-89
2021/09/04 11:23:28;;;;;;;5.83;3.80;;;18.80;99.90;;;;;;5095092;28;20549;-89
2021/09/04 11:25:55;;;;;;;9.60;3.97;;;19.00;99.90;;;;;;5095075;28;20464;-89
2021/09/04 11:28:34;;;;;;;10.43;4.20;;;19.10;99.90;;;;;;5095080;28;20414;-86
2021/09/04 11:31:00;;;;;;;5.30;3.50;;;19.50;99.90;;;;;;5094536;28;20463;-88
2021/09/04 11:33:26;;;;;;;8.13;3.87;;;19.60;99.90;;;;;;5094651;28;20763;-88
2021/09/04 11:35:54;;;;;;;7.17;3.93;;;19.60;99.90;;;;;;5093932;28;20420;-89
2021/09/04 11:38:20;;;;;;;8.30;4.23;;;19.70;99.90;;;;;;5094797;28;20581;-86
2021/09/04 11:40:47;;;;;;;4.80;3.73;;;19.90;99.90;;;;;;5094677;28;20515;-88
2021/09/04 11:43:16;;;;;;;10.47;3.67;;;20.10;99.90;;;;;;5094195;28;20652;-88
2021/09/04 11:45:42;;;;;;;7.87;3.10;;;20.80;99.90;;;;;;5095499;28;20409;-88
2021/09/04 11:48:10;;;;;;;5.90;3.80;;;20.60;99.90;;;;;;5096339;28;20523;-85
2021/09/04 11:50:37;;;;;;;5.77;3.00;;;21.10;99.90;;;;;;5116209;28;20534;-89
2021/09/04 11:53:10;;;;;;;5.10;3.43;;;22.40;99.90;;;;;;5117614;28;20402;-88
2021/09/04 11:55:37;;;;;;;6.27;3.83;;;22.70;99.90;;;;;;5117652;28;20418;-88
2021/09/04 11:58:13;;;;;;;6.73;3.97;;;21.30;99.90;;;;;;5117805;28;20422;-86
2021/09/04 12:00:42;;;;;;;5.90;3.50;;;20.40;99.90;;;;;;5115465;28;20382;-87
2021/09/04 12:03:13;;;;;;;7.00;3.80;;;20.00;99.90;;;;;;5094626;28;20424;-89
2021/09/04 12:05:44;;;;;;;7.03;3.50;;;19.90;99.90;;;;;;5094073;28;20412;-89
2021/09/04 12:08:13;;;;;;;4.77;3.37;;;21.10;99.90;;;;;;5091160;28;20878;-89
2021/09/04 12:10:42;;;;;;;4.80;2.33;;;21.40;99.90;;;;;;5092968;28;20473;-89
2021/09/04 12:13:20;;;;;;;4.80;3.37;;;21.20;99.90;;;;;;5089955;28;20798;-87
2021/09/04 12:15:46;;;;;;;4.60;2.73;;;22.00;99.90;;;;;;5092086;28;20422;-87
2021/09/04 12:18:12;;;;;;;6.00;2.60;;;23.30;99.60;;;;;;5092325;28;20410;-87
2021/09/04 12:20:44;;;;;;;9.10;3.80;;;22.50;99.90;;;;;;5092279;28;20849;-84
2021/09/04 12:23:28;;;;;;;8.20;3.37;;;21.80;99.90;;;;;;5093570;28;20198;-86
2021/09/04 12:26:06;;;;;;;6.17;2.80;;;21.10;99.90;;;;;;5092119;28;20422;-88
2021/09/04 12:28:33;;;;;;;6.97;3.60;;;20.70;99.90;;;;;;5092432;28;20421;-87
2021/09/04 12:31:07;;;;;;;8.73;3.07;;;20.40;99.90;;;;;;5091899;28;20949;-86
2021/09/04 12:33:52;;;;;;;6.33;1.90;;;20.60;99.90;;;;;;5093483;28;20413;-88
2021/09/04 12:36:27;;;;;;;4.30;2.43;;;20.20;99.90;;;;;;5082877;27;20465;-85
2021/09/04 12:38:55;;;;;;;7.60;2.60;;;20.10;99.90;;;;;;5092911;28;20416;-85
2021/09/04 12:41:29;;;;;;;5.57;2.70;;;19.70;99.90;;;;;;5093392;28;20416;-86
2021/09/04 12:44:04;;;;;;;3.00;1.90;;;19.80;99.90;;;;;;5092481;28;20452;-88
2021/09/04 12:46:33;;;;;;;3.07;1.87;;;19.70;99.90;;;;;;5092480;28;20417;-88